Fairfax, IA

7:04 PM CST on January 31, 2015 (GMT -0600)
IADOT Cedar Rapids (US 30) | Change Station
CLOSE
Current Station
Personal Weather Station
Location: Cedar Rapids, IA
Elevation: 807 ft
Nearby Weather Stations
Active Advisory: Winter Storm Warning

Elev 807 ft 41.93 °N, 91.68 °W | Updated 44 minutes ago

Rain
Rain
37 °F
Feels Like 34 °F
N
4
Wind Variable Wind from South
Gusts 9.0 mph

Today
High -- | Low -- °F
--% Chance of Precip.
Yesterday
High -- | Low -- °F
Precip. -- in
7:20 AM 5:20 PM
Waxing Gibbous, 92% visible
Pressure 30.11 in
Visibility 4.0 miles
Clouds Mostly Cloudy 600 ft
Overcast 1100 ft
Windchill 34 °F
Dew Point 36 °F
Humidity 97%
Rainfall -999.00 in
Snow Depth Not available.
UV 0 out of 12
Pollen .10 out of 12
Air Quality Not available.
Flu Activity Not available.
METAR KCID 010052Z 17004KT 4SM -RA BR BKN006 OVC011 02/02 A3008 RMK AO2 SLP194 P0004 T00170017 $

More Conditions Fewer Conditions

Pressure 30.11 in
Visibility 4.0 miles
Clouds Mostly Cloudy 600 ft
Overcast 1100 ft
Windchill 34 °F
Dew Point 36 °F
Humidity 97%
Rainfall -999.00 in
Snow Depth Not available.
UV 0 out of 12
Pollen .10 out of 12
Air Quality Not available.
Flu Activity Not available.
METAR KCID 010052Z 17004KT 4SM -RA BR BKN006 OVC011 02/02 A3008 RMK AO2 SLP194 P0004 T00170017 $

More Conditions Fewer Conditions

10-Day Weather Forecast

Almanac

Astronomy

Jan. 31, 2015 Rise Set
Actual Time
Civil Twilight
Nautical Twilight
Astronomical Twilight
Moon
Length of Visible Light
Length of Day
Tomorrow will be .
, % of the Moon is Illuminated

Today's Extremes

State Highs State Lows

Community

WunderPhotos

Upload Photos

1,792,268 photos uploaded!

WunderBlogs® & News

Nearby

Air Quality

  Air Quality AQ Index Pollutant
Not available.

Snow Depth

Station Depth Elevation

Earthquake Activity

City Distance Mag. Time & Date
Minimum magnitude displayed is 2.5.

Coastal Water Temperatures

Place Temperature

Nearby Weather Stations